createdAt,value
2022-12-29T00:01:06.679Z,102384.97
2022-12-29T00:06:04.699Z,102377.97
2022-12-29T00:11:03.659Z,102398.38
2022-12-29T00:16:02.966Z,102397.41
2022-12-29T00:21:18.375Z,102400.59
2022-12-29T00:26:34.422Z,102397.91
2022-12-29T00:31:51.464Z,102405.63
2022-12-29T00:36:49.597Z,102395.38
2022-12-29T00:42:04.919Z,102400.53
2022-12-29T00:47:07.816Z,102392.91
2022-12-29T00:52:06.459Z,102397.22
2022-12-29T00:57:06.376Z,102398.16
2022-12-29T01:02:06.964Z,102384.41
2022-12-29T01:07:05.261Z,102384.38
2022-12-29T01:12:03.273Z,102384.38
2022-12-29T01:17:01.146Z,102369.72
2022-12-29T01:22:00.342Z,102367.06
2022-12-29T01:26:59.472Z,102360.09
2022-12-29T01:31:57.339Z,102353.16
2022-12-29T01:36:55.213Z,102353.91
2022-12-29T01:41:54.421Z,102364.13
2022-12-29T01:46:53.605Z,102352.69
2022-12-29T01:51:56.481Z,102352.38
2022-12-29T01:56:57.832Z,102335.00
2022-12-29T02:01:56.466Z,102331.19
2022-12-29T02:06:56.050Z,102338.09
2022-12-29T02:11:55.449Z,102342.38
2022-12-29T02:16:59.505Z,102332.81
2022-12-29T02:22:02.412Z,102330.63
2022-12-29T02:27:18.257Z,102325.47
2022-12-29T02:32:21.906Z,102325.38
2022-12-29T02:37:21.805Z,102317.34
2022-12-29T02:42:25.388Z,102302.09
2022-12-29T02:47:30.304Z,102307.94
2022-12-29T02:52:29.996Z,102307.97
2022-12-29T02:57:32.175Z,102310.53
2022-12-29T03:02:50.190Z,102302.97
2022-12-29T03:07:52.835Z,102302.00
2022-12-29T03:13:11.668Z,102305.38
2022-12-29T03:18:14.140Z,102310.31
2022-12-29T03:23:13.673Z,102314.53
2022-12-29T03:28:14.138Z,102319.66
2022-12-29T03:33:19.197Z,102332.41
2022-12-29T03:38:18.407Z,102329.78
2022-12-29T03:43:17.851Z,102317.75
2022-12-29T03:48:19.036Z,102322.41
2022-12-29T03:53:18.101Z,102315.88
2022-12-29T03:58:16.923Z,102314.16
2022-12-29T04:03:31.570Z,102317.63
2022-12-29T04:08:29.437Z,102324.41
2022-12-29T04:13:27.442Z,102327.13
2022-12-29T04:18:25.333Z,102326.22
2022-12-29T04:23:25.234Z,102326.22
2022-12-29T04:28:23.451Z,102339.91
2022-12-29T04:33:34.078Z,102343.97
2022-12-29T04:38:33.910Z,102339.63
2022-12-29T04:43:34.858Z,102339.44
2022-12-29T04:48:51.218Z,102341.13
2022-12-29T04:54:09.068Z,102351.28
2022-12-29T04:59:08.401Z,102357.31
2022-12-29T05:04:06.650Z,102356.63
2022-12-29T05:09:04.574Z,102354.75
2022-12-29T05:14:03.807Z,102358.00
2022-12-29T05:19:01.832Z,102371.59
2022-12-29T05:24:00.980Z,102369.50
2022-12-29T05:29:01.019Z,102368.59
2022-12-29T05:34:00.351Z,102359.34
2022-12-29T05:38:59.762Z,102358.19
2022-12-29T05:43:57.809Z,102351.31
2022-12-29T05:48:58.547Z,102345.50
2022-12-29T05:54:23.944Z,102345.63
2022-12-29T05:59:23.021Z,102349.03
2022-12-29T06:04:22.163Z,102343.97
2022-12-29T06:09:20.176Z,102344.16
2022-12-29T06:14:19.771Z,102339.25
2022-12-29T06:19:17.710Z,102333.50
2022-12-29T06:24:16.271Z,102331.63
2022-12-29T06:29:17.784Z,102339.72
2022-12-29T06:34:17.231Z,102349.47
2022-12-29T06:39:15.365Z,102345.06
2022-12-29T06:44:20.374Z,102341.09
2022-12-29T06:49:23.823Z,102357.50
2022-12-29T06:54:21.758Z,102363.53
2022-12-29T06:59:19.908Z,102378.09
2022-12-29T07:04:17.708Z,102378.94
2022-12-29T07:09:17.043Z,102383.16
2022-12-29T07:14:15.290Z,102386.75
2022-12-29T07:19:13.381Z,102384.91
2022-12-29T07:24:11.828Z,102381.97
2022-12-29T07:29:11.076Z,102390.19
2022-12-29T07:34:10.438Z,102395.09
2022-12-29T07:39:10.784Z,102388.63
2022-12-29T07:44:11.946Z,102382.63
2022-12-29T07:49:35.975Z,102379.53
2022-12-29T07:54:33.859Z,102386.53
2022-12-29T07:59:34.591Z,102353.28
2022-12-29T08:04:32.434Z,102379.16
2022-12-29T08:09:30.274Z,102378.88
2022-12-29T08:14:28.165Z,102383.75
2022-12-29T08:19:27.420Z,102379.53
2022-12-29T08:24:25.625Z,102374.09
2022-12-29T08:29:23.752Z,102368.34
2022-12-29T08:34:21.669Z,102371.94
2022-12-29T08:39:21.040Z,102369.66
2022-12-29T08:44:19.153Z,102362.88
2022-12-29T08:49:17.412Z,102361.06
2022-12-29T08:54:15.248Z,102358.03
2022-12-29T08:59:14.920Z,102356.88
2022-12-29T09:04:16.686Z,102356.22
2022-12-29T09:09:15.857Z,102355.34
2022-12-29T09:14:15.290Z,102338.91
2022-12-29T09:19:13.092Z,102332.50
2022-12-29T09:24:10.936Z,102334.38
2022-12-29T09:29:08.817Z,102328.03
2022-12-29T09:34:08.040Z,102308.94
2022-12-29T09:39:05.947Z,102307.72
2022-12-29T09:44:08.155Z,102305.69
2022-12-29T09:49:18.059Z,102300.94
2022-12-29T09:54:25.128Z,102289.47
2022-12-29T09:59:25.899Z,102279.84
2022-12-29T10:04:27.785Z,102271.16
2022-12-29T10:09:29.072Z,102279.97
2022-12-29T10:14:37.931Z,102284.81
2022-12-29T10:19:44.980Z,102273.03
2022-12-29T10:24:45.264Z,102273.59
2022-12-29T10:29:46.893Z,102266.41
2022-12-29T10:34:47.736Z,102261.06
2022-12-29T10:39:47.552Z,102251.19
2022-12-29T10:44:45.432Z,102251.88
2022-12-29T10:49:44.900Z,102245.00
2022-12-29T10:54:47.459Z,102238.38
2022-12-29T10:59:45.398Z,102245.50
2022-12-29T11:04:48.651Z,102238.66
2022-12-29T11:09:48.330Z,102235.13
2022-12-29T11:14:46.143Z,102225.69
2022-12-29T11:19:43.965Z,102216.06
2022-12-29T11:24:46.075Z,102221.72
2022-12-29T11:29:45.489Z,102206.47
2022-12-29T11:34:43.305Z,102208.34
2022-12-29T11:39:43.173Z,102198.47
2022-12-29T11:44:44.436Z,102192.88
2022-12-29T11:49:43.653Z,102183.63
2022-12-29T11:54:41.591Z,102186.63
2022-12-29T11:59:45.605Z,102184.00
2022-12-29T12:04:45.429Z,102177.47
2022-12-29T12:09:45.868Z,102180.38
2022-12-29T12:14:49.063Z,102175.00
2022-12-29T12:20:04.991Z,102170.72
2022-12-29T12:25:06.475Z,102154.31
2022-12-29T12:30:06.327Z,102158.63
2022-12-29T12:35:06.494Z,102162.41
2022-12-29T12:40:13.547Z,102163.06
2022-12-29T12:45:28.706Z,102147.22
2022-12-29T12:50:34.242Z,102149.31
2022-12-29T12:55:38.974Z,102146.31
2022-12-29T13:00:40.615Z,102143.56
2022-12-29T13:05:52.469Z,102147.72
2022-12-29T13:10:53.840Z,102144.94
2022-12-29T13:15:54.500Z,102150.75
2022-12-29T13:20:56.272Z,102142.69
2022-12-29T13:25:58.566Z,102146.13
2022-12-29T13:31:00.099Z,102148.06
2022-12-29T13:36:01.765Z,102155.97
2022-12-29T13:41:02.785Z,102140.44
2022-12-29T13:46:02.151Z,102141.41
2022-12-29T13:51:03.237Z,102146.84
2022-12-29T13:56:05.319Z,102145.28
2022-12-29T14:01:06.105Z,102148.34
2022-12-29T14:06:14.828Z,102152.75
2022-12-29T14:11:13.791Z,102147.41
2022-12-29T14:16:23.259Z,102154.69
2022-12-29T14:21:24.443Z,102157.69
2022-12-29T14:26:36.186Z,102164.13
2022-12-29T14:31:42.092Z,102160.13
2022-12-29T14:36:42.286Z,102165.75
2022-12-29T14:41:40.803Z,102154.78
2022-12-29T14:46:49.974Z,102160.34
2022-12-29T14:51:49.899Z,102147.69
2022-12-29T14:56:48.014Z,102157.53
2022-12-29T15:01:50.460Z,102156.34
2022-12-29T15:06:51.245Z,102147.81
2022-12-29T15:11:51.930Z,102149.94
2022-12-29T15:16:49.892Z,102148.47
2022-12-29T15:21:49.412Z,102160.16
2022-12-29T15:26:48.360Z,102152.72
2022-12-29T15:31:48.408Z,102157.13
2022-12-29T15:36:46.270Z,102157.28
2022-12-29T15:42:01.541Z,102164.38
2022-12-29T15:46:59.735Z,102162.09
2022-12-29T15:51:57.685Z,102152.78
2022-12-29T15:56:57.419Z,102159.19
2022-12-29T16:01:56.004Z,102157.50
2022-12-29T16:06:58.622Z,102153.41
2022-12-29T16:12:00.004Z,102153.47
2022-12-29T16:17:00.180Z,102148.50
2022-12-29T16:22:00.128Z,102140.72
2022-12-29T16:27:01.538Z,102153.66
2022-12-29T16:32:04.003Z,102138.44
2022-12-29T16:37:02.464Z,102148.84
2022-12-29T16:42:01.896Z,102150.63
2022-12-29T16:47:04.789Z,102148.91
2022-12-29T16:52:03.306Z,102140.44
2022-12-29T16:57:02.650Z,102137.00
2022-12-29T17:02:02.378Z,102120.66
2022-12-29T17:07:00.548Z,102120.63
2022-12-29T17:12:08.373Z,102122.34
2022-12-29T17:17:13.401Z,102117.19
2022-12-29T17:22:12.547Z,102119.78
2022-12-29T17:27:20.886Z,102118.03
2022-12-29T17:32:20.563Z,102119.75
2022-12-29T17:37:28.212Z,102123.22
2022-12-29T17:42:26.126Z,102123.28
2022-12-29T17:47:25.326Z,102122.47
2022-12-29T17:52:23.236Z,102125.06
2022-12-29T17:57:22.186Z,102125.88
2022-12-29T18:02:24.939Z,102120.75
2022-12-29T18:07:30.982Z,102118.19
2022-12-29T18:12:34.415Z,102124.19
2022-12-29T18:17:32.303Z,102126.78
2022-12-29T18:22:32.311Z,102135.38
2022-12-29T18:27:30.439Z,102130.25
2022-12-29T18:32:28.384Z,102126.81
2022-12-29T18:37:26.248Z,102103.59
2022-12-29T18:42:25.428Z,102138.00
2022-12-29T18:47:23.366Z,102144.84
2022-12-29T18:52:21.222Z,102132.81
2022-12-29T18:57:19.358Z,102132.81
2022-12-29T19:02:18.807Z,102112.16
2022-12-29T19:07:16.867Z,102138.81
2022-12-29T19:12:16.395Z,102137.09
2022-12-29T19:17:14.553Z,102139.63
2022-12-29T19:22:13.760Z,102141.34
2022-12-29T19:27:11.761Z,102140.50
2022-12-29T19:32:09.602Z,102144.69
2022-12-29T19:37:07.543Z,102138.75
2022-12-29T19:42:06.955Z,102133.50
2022-12-29T19:47:04.984Z,102132.56
2022-12-29T19:52:02.910Z,102135.13
2022-12-29T19:57:00.808Z,102131.56
2022-12-29T20:02:00.326Z,102120.38
2022-12-29T20:06:58.417Z,102122.84
2022-12-29T20:11:56.279Z,102120.28
2022-12-29T20:17:10.866Z,102110.66
2022-12-29T20:22:11.604Z,102103.72
2022-12-29T20:27:10.465Z,102108.91
2022-12-29T20:32:08.903Z,102104.66
2022-12-29T20:37:06.943Z,102107.31
2022-12-29T20:42:06.515Z,102096.19
2022-12-29T20:47:06.071Z,102097.09
2022-12-29T20:52:06.654Z,102094.25
2022-12-29T20:57:06.337Z,102098.69
2022-12-29T21:02:04.755Z,102101.94
2022-12-29T21:07:02.789Z,102100.16
2022-12-29T21:12:02.920Z,102110.56
2022-12-29T21:17:02.495Z,102106.31
2022-12-29T21:22:00.395Z,102111.41
2022-12-29T21:26:58.249Z,102118.28
2022-12-29T21:31:58.692Z,102109.66
2022-12-29T21:37:00.271Z,102122.34
2022-12-29T21:42:00.411Z,102105.16
2022-12-29T21:46:58.586Z,102111.81
2022-12-29T21:51:57.737Z,102109.28
2022-12-29T21:56:57.004Z,102105.19
2022-12-29T22:02:12.137Z,102104.13
2022-12-29T22:07:28.103Z,102091.34
2022-12-29T22:12:44.984Z,102092.28
2022-12-29T22:17:48.569Z,102079.53
2022-12-29T22:22:47.230Z,102069.28
2022-12-29T22:27:46.803Z,102066.63
2022-12-29T22:32:50.186Z,102057.22
2022-12-29T22:37:47.999Z,102059.66
2022-12-29T22:42:49.739Z,102048.53
2022-12-29T22:47:51.089Z,102052.03
2022-12-29T22:52:49.821Z,102046.91
2022-12-29T22:57:49.166Z,102045.13
2022-12-29T23:02:47.252Z,102040.59
2022-12-29T23:07:45.339Z,102031.94
2022-12-29T23:12:43.205Z,102027.78
2022-12-29T23:17:42.648Z,102035.56
2022-12-29T23:22:40.573Z,102042.44
2022-12-29T23:27:38.486Z,102050.31
2022-12-29T23:32:37.355Z,102044.19
2022-12-29T23:37:36.811Z,102046.66
2022-12-29T23:42:34.750Z,102053.59
2022-12-29T23:47:32.581Z,102044.97
2022-12-29T23:52:30.431Z,102044.09
2022-12-29T23:57:29.638Z,102038.19
